Venus R — P3TH9 — position and weather

sailwx.info

Track history (hours):
 
Tides and Currents Weather Stations Pressure Air Temp Water Temp Dewpoint Dewpoint Depression Visibility Wind Speed Wind Dir Waves Ship Positions

Venus R

Last reported at 2017-Dec-11 06:08 UTC. Time now 2017-Dec-13 05:35 UTC.
Position N 34°38' E 139°37'.

Length 227 m; draft 9.3 m.

Type: Ship. MMSI: 212084000.

Date/timePositionNaut miles runAvg speedWind from/ knotsBaromVisibWave heightAir tempDewpointWater temp
2017-Dec-11 06:08N 34°38' E 139°37'316.2
2017-Dec-11 05:57N 34°37' E 139°33'916.3
2017-Dec-11 05:25N 34°36' E 139°23'715.7
2017-Dec-11 05:01N 34°36' E 139°15'1216.1
2017-Dec-11 04:16N 34°30' E 139°02'416.0
2017-Dec-11 04:00N 34°28' E 138°58'1115.7
2017-Dec-11 03:17N 34°23' E 138°46'19112.8
2017-Dec-10 12:18N 33°47' E 134°59'515.5
2017-Dec-10 12:00N 33°52' E 134°57'815.5
2017-Dec-10 11:30N 33°59' E 134°54'814.4
2017-Dec-10 10:58N 34°07' E 134°57'613.6
2017-Dec-10 10:30N 34°13' E 134°58'611.7
2017-Dec-10 10:00N 34°19' E 134°59'714.3
2017-Dec-10 09:30N 34°25' E 135°02'714.6
2017-Dec-10 09:00N 34°32' E 135°07'3 5.9
2017-Dec-10 08:30N 34°35' E 135°06'5 9.4
2017-Dec-10 08:00N 34°37' E 135°01'612.2
2017-Dec-10 07:30N 34°35' E 134°54'713.9
2017-Dec-10 07:00N 34°32' E 134°46'714.7
2017-Dec-10 06:30N 34°30' E 134°38'714.9
2017-Dec-10 06:00N 34°27' E 134°30'714.7
2017-Dec-10 05:30N 34°24' E 134°22'714.1
2017-Dec-10 05:00N 34°24' E 134°13'813.3
2017-Dec-10 04:24N 34°27' E 134°04'0 0.0
2017-Dec-08 22:34N 34°27' E 134°04'413.1
2017-Dec-08 22:17N 34°26' E 134°08'412.8
2017-Dec-08 21:58N 34°25' E 134°13'511.4
2017-Dec-08 21:30N 34°24' E 134°19'611.5
2017-Dec-08 21:00N 34°26' E 134°26'510.7
2017-Dec-08 20:30N 34°28' E 134°32'612.0
2017-Dec-08 20:00N 34°30' E 134°39'612.7
2017-Dec-08 19:30N 34°33' E 134°46'612.5
2017-Dec-08 19:00N 34°35' E 134°53'611.9
2017-Dec-08 18:30N 34°38' E 134°59'611.4
2017-Dec-08 18:00N 34°35' E 135°06'4 7.5
2017-Dec-08 17:30N 34°33' E 135°09'4 8.0
2017-Dec-08 17:00N 34°29' E 135°07'4 8.1
2017-Dec-08 16:30N 34°26' E 135°04'510.9
2017-Dec-08 16:00N 34°21' E 135°01'713.9
2017-Dec-08 15:30N 34°14' E 134°59'5 9.6
2017-Dec-08 15:00N 34°09' E 134°58'612.9
2017-Dec-08 14:30N 34°03' E 134°57'713.3
2017-Dec-08 14:00N 33°56' E 134°57'612.8
2017-Dec-08 13:31N 33°50' E 134°57'  
Track history (hours):
 
Tides and Currents Weather Stations Pressure Air Temp Water Temp Dewpoint Dewpoint Depression Visibility Wind Speed Wind Dir Waves Ship Positions

Venus R

Last reported at 2017-Dec-11 06:08 UTC. Time now 2017-Dec-13 05:35 UTC.
Position N 34°38' E 139°37'.

Length 227 m; draft 9.3 m.

Type: Ship. MMSI: 212084000.

Date/timePositionNaut miles runAvg speedWind from/ knotsBaromVisibWave heightAir tempDewpointWater temp
2017-Dec-11 06:08N 34°38' E 139°37'316.2
2017-Dec-11 05:57N 34°37' E 139°33'916.3
2017-Dec-11 05:25N 34°36' E 139°23'715.7
2017-Dec-11 05:01N 34°36' E 139°15'1216.1
2017-Dec-11 04:16N 34°30' E 139°02'416.0
2017-Dec-11 04:00N 34°28' E 138°58'1115.7
2017-Dec-11 03:17N 34°23' E 138°46'19112.8
2017-Dec-10 12:18N 33°47' E 134°59'515.5
2017-Dec-10 12:00N 33°52' E 134°57'815.5
2017-Dec-10 11:30N 33°59' E 134°54'814.4
2017-Dec-10 10:58N 34°07' E 134°57'613.6
2017-Dec-10 10:30N 34°13' E 134°58'611.7
2017-Dec-10 10:00N 34°19' E 134°59'714.3
2017-Dec-10 09:30N 34°25' E 135°02'714.6
2017-Dec-10 09:00N 34°32' E 135°07'3 5.9
2017-Dec-10 08:30N 34°35' E 135°06'5 9.4
2017-Dec-10 08:00N 34°37' E 135°01'612.2
2017-Dec-10 07:30N 34°35' E 134°54'713.9
2017-Dec-10 07:00N 34°32' E 134°46'714.7
2017-Dec-10 06:30N 34°30' E 134°38'714.9
2017-Dec-10 06:00N 34°27' E 134°30'714.7
2017-Dec-10 05:30N 34°24' E 134°22'714.1
2017-Dec-10 05:00N 34°24' E 134°13'813.3
2017-Dec-10 04:24N 34°27' E 134°04'0 0.0
2017-Dec-08 22:34N 34°27' E 134°04'413.1
2017-Dec-08 22:17N 34°26' E 134°08'412.8
2017-Dec-08 21:58N 34°25' E 134°13'511.4
2017-Dec-08 21:30N 34°24' E 134°19'611.5
2017-Dec-08 21:00N 34°26' E 134°26'510.7
2017-Dec-08 20:30N 34°28' E 134°32'612.0
2017-Dec-08 20:00N 34°30' E 134°39'612.7
2017-Dec-08 19:30N 34°33' E 134°46'612.5
2017-Dec-08 19:00N 34°35' E 134°53'611.9
2017-Dec-08 18:30N 34°38' E 134°59'611.4
2017-Dec-08 18:00N 34°35' E 135°06'4 7.5
2017-Dec-08 17:30N 34°33' E 135°09'4 8.0
2017-Dec-08 17:00N 34°29' E 135°07'4 8.1
2017-Dec-08 16:30N 34°26' E 135°04'510.9
2017-Dec-08 16:00N 34°21' E 135°01'713.9
2017-Dec-08 15:30N 34°14' E 134°59'5 9.6
2017-Dec-08 15:00N 34°09' E 134°58'612.9
2017-Dec-08 14:30N 34°03' E 134°57'713.3
2017-Dec-08 14:00N 33°56' E 134°57'612.8
2017-Dec-08 13:31N 33°50' E 134°57'  

Dump ship's entire track history